Time;durP1;ratioP1;P1;durP2;ratioP2;P2;SDS_P1;SDS_P2;PMS_P1;PMS_P2;Temp;Humidity;BMP_temperature;BMP_pressure;BME280_temperature;BME280_humidity;BME280_pressure;Samples;Min_cycle;Max_cycle;Signal;HPM_P1;HPM_P2
2023/01/15 00:02:25;;;;;;;;;;;9.90;99.90;;;;;;5073336;28;19929;-63
2023/01/15 00:04:53;;;;;;;;;;;9.80;99.90;;;;;;5073354;28;19928;-63
2023/01/15 00:07:21;;;;;;;;;;;9.80;99.90;;;;;;5080156;28;19924;-63
2023/01/15 00:09:49;;;;;;;;;;;9.80;99.90;;;;;;5062960;28;19935;-63
2023/01/15 00:12:17;;;;;;;;;;;9.80;99.90;;;;;;5070519;28;19931;-64
2023/01/15 00:14:46;;;;;;;;;;;9.70;99.90;;;;;;5064560;28;19948;-64
2023/01/15 00:17:14;;;;;;;;;;;9.80;99.90;;;;;;5070849;28;19931;-64
2023/01/15 00:19:42;;;;;;;;;;;9.80;99.90;;;;;;5072584;28;19935;-63
2023/01/15 00:22:10;;;;;;;;;;;9.70;99.90;;;;;;5066430;28;19931;-65
2023/01/15 00:27:38;;;;;;;;;;;9.80;99.90;;;;;;5070309;28;19928;-64
2023/01/15 00:30:09;;;;;;;;;;;9.80;99.90;;;;;;5071919;28;19971;-64
2023/01/15 00:32:37;;;;;;;;;;;9.80;99.90;;;;;;5115304;22;20015;-74
2023/01/15 00:35:05;;;;;;;;;;;9.80;99.90;;;;;;5099051;28;19963;-74
2023/01/15 00:37:32;;;;;;;;;;;9.80;99.90;;;;;;5101341;28;19975;-74
2023/01/15 00:40:00;;;;;;;;;;;9.80;99.90;;;;;;5105063;28;20596;-75
2023/01/15 00:42:28;;;;;;;;;;;9.90;99.90;;;;;;5104053;28;19923;-74
2023/01/15 00:44:55;;;;;;;;;;;10.00;99.90;;;;;;5097226;28;19930;-74
2023/01/15 00:47:25;;;;;;;;;;;10.00;99.90;;;;;;5096587;28;19924;-76
2023/01/15 00:49:52;;;;;;;;;;;10.00;99.90;;;;;;5108682;28;19930;-74
2023/01/15 00:52:20;;;;;;;;;;;10.10;99.90;;;;;;5107875;28;19951;-75
2023/01/15 00:54:48;;;;;;;;;;;10.10;99.90;;;;;;5104812;28;19934;-75
2023/01/15 00:57:15;;;;;;;;;;;10.10;99.90;;;;;;5103998;28;20026;-75
2023/01/15 00:59:43;;;;;;;;;;;10.00;99.90;;;;;;5099700;28;20427;-75
2023/01/15 01:02:11;;;;;;;;;;;10.10;99.90;;;;;;5105922;28;20381;-75
2023/01/15 01:04:40;;;;;;;;;;;10.10;99.90;;;;;;5103764;28;19939;-76
2023/01/15 01:07:08;;;;;;;;;;;10.10;99.90;;;;;;5106925;28;19927;-75
2023/01/15 01:09:35;;;;;;;;;;;10.10;99.90;;;;;;5102300;28;19930;-76
2023/01/15 01:12:03;;;;;;;;;;;10.00;99.90;;;;;;5112753;28;20026;-76
2023/01/15 01:14:31;;;;;;;;;;;10.00;99.90;;;;;;5094877;28;19931;-76
2023/01/15 01:16:59;;;;;;;;;;;9.90;99.90;;;;;;5092150;28;20389;-76
2023/01/15 01:19:26;;;;;;;;;;;9.80;99.90;;;;;;5105171;28;19931;-74
2023/01/15 01:21:55;;;;;;;;;;;9.70;99.90;;;;;;5111981;28;19923;-76
2023/01/15 01:24:24;;;;;;;;;;;9.70;99.90;;;;;;5112432;28;19924;-75
2023/01/15 01:26:52;;;;;;;;;;;9.60;99.90;;;;;;5112453;28;19930;-76
2023/01/15 01:29:22;;;;;;;;;;;9.50;99.90;;;;;;5112462;28;19924;-75
2023/01/15 01:31:50;;;;;;;;;;;9.50;99.90;;;;;;5118352;27;19931;-75
2023/01/15 01:34:18;;;;;;;;;;;9.50;99.90;;;;;;5133008;27;19923;-75
2023/01/15 01:36:45;;;;;;;;;;;9.40;99.90;;;;;;5126055;27;19932;-75
2023/01/15 01:39:15;;;;;;;;;;;9.40;99.90;;;;;;5120616;27;19973;-75
2023/01/15 01:41:44;;;;;;;;;;;9.40;99.90;;;;;;5132057;27;20026;-75
2023/01/15 01:44:30;;;;;;;;;;;9.40;99.90;;;;;;5132746;27;19923;-75
2023/01/15 01:46:58;;;;;;;;;;;9.40;99.90;;;;;;5132737;27;20018;-75
2023/01/15 01:49:26;;;;;;;;;;;9.40;99.90;;;;;;5132767;27;20010;-75
2023/01/15 01:51:56;;;;;;;;;;;9.30;99.90;;;;;;5131809;28;19935;-76
2023/01/15 01:54:26;;;;;;;;;;;9.30;99.90;;;;;;5132396;28;19927;-76
2023/01/15 01:56:54;;;;;;;;;;;9.30;99.90;;;;;;5132705;28;19955;-76
2023/01/15 01:59:23;;;;;;;;;;;9.30;99.90;;;;;;5132519;28;19935;-76
2023/01/15 02:01:51;;;;;;;;;;;9.30;99.90;;;;;;5131779;28;19924;-75
2023/01/15 02:04:20;;;;;;;;;;;9.30;99.90;;;;;;5132698;28;19927;-75
2023/01/15 02:06:48;;;;;;;;;;;9.30;99.90;;;;;;5127361;28;19966;-75
2023/01/15 02:09:16;;;;;;;;;;;9.30;99.90;;;;;;5122028;27;19928;-75
2023/01/15 02:11:45;;;;;;;;;;;9.30;99.90;;;;;;5131706;27;19931;-75
2023/01/15 02:14:15;;;;;;;;;;;9.30;99.90;;;;;;5136847;27;20022;-76
2023/01/15 02:16:47;;;;;;;;;;;9.30;99.90;;;;;;5136727;27;19927;-76
2023/01/15 02:19:20;;;;;;;;;;;9.30;99.90;;;;;;5136501;27;20022;-76
2023/01/15 02:21:50;;;;;;;;;;;9.20;99.90;;;;;;5135744;27;20595;-76
2023/01/15 02:24:23;;;;;;;;;;;9.10;99.90;;;;;;5136703;27;19929;-76
2023/01/15 02:26:58;;;;;;;;;;;9.10;99.90;;;;;;5136175;27;20014;-73
2023/01/15 02:29:29;;;;;;;;;;;9.10;99.90;;;;;;5135963;27;20010;-75
2023/01/15 02:31:59;;;;;;;;;;;9.00;99.90;;;;;;5132221;27;19959;-75
2023/01/15 02:34:29;;;;;;;;;;;8.90;99.90;;;;;;5130771;27;19950;-76
2023/01/15 02:37:00;;;;;;;;;;;8.90;99.90;;;;;;5130270;27;19930;-77
2023/01/15 02:39:28;;;;;;;;;;;8.90;99.90;;;;;;5128524;27;19956;-75
2023/01/15 02:42:00;;;;;;;;;;;8.80;99.90;;;;;;5131039;27;19976;-74
2023/01/15 02:44:30;;;;;;;;;;;8.70;99.90;;;;;;5126692;27;19928;-76
2023/01/15 02:46:59;;;;;;;;;;;8.60;99.90;;;;;;5123963;27;19930;-78
2023/01/15 02:49:27;;;;;;;;;;;8.50;99.90;;;;;;5130411;27;19971;-78
2023/01/15 02:51:58;;;;;;;;;;;8.50;99.90;;;;;;5130016;27;19929;-75
2023/01/15 02:54:27;;;;;;;;;;;8.40;99.90;;;;;;5134563;27;20022;-74
2023/01/15 02:56:56;;;;;;;;;;;8.40;99.90;;;;;;5126487;27;20067;-74
2023/01/15 02:59:28;;;;;;;;;;;8.30;99.90;;;;;;5125017;27;19938;-76
2023/01/15 03:01:58;;;;;;;;;;;8.20;99.90;;;;;;5124778;27;20018;-75
2023/01/15 03:04:30;;;;;;;;;;;8.30;99.90;;;;;;5130797;27;19923;-75
2023/01/15 03:07:00;;;;;;;;;;;8.20;99.90;;;;;;5131709;27;20022;-75
2023/01/15 03:09:29;;;;;;;;;;;8.10;99.90;;;;;;5128646;27;20364;-74
2023/01/15 03:12:02;;;;;;;;;;;8.20;99.90;;;;;;5126338;27;19955;-75
2023/01/15 03:14:35;;;;;;;;;;;8.10;99.90;;;;;;5126910;27;19923;-76
2023/01/15 03:17:07;;;;;;;;;;;8.10;99.90;;;;;;5129061;27;19930;-74
2023/01/15 03:19:39;;;;;;;;;;;8.10;99.90;;;;;;5119539;27;19961;-74
2023/01/15 03:22:09;;;;;;;;;;;8.10;99.90;;;;;;5125715;27;19928;-75
2023/01/15 03:24:39;;;;;;;;;;;8.10;99.90;;;;;;5126837;27;20471;-74
2023/01/15 03:27:07;;;;;;;;;;;8.10;99.90;;;;;;5121428;27;19952;-74
2023/01/15 03:29:38;;;;;;;;;;;8.00;99.90;;;;;;5127800;27;19923;-75
2023/01/15 03:32:06;;;;;;;;;;;7.90;99.90;;;;;;5129467;27;19930;-73
2023/01/15 03:34:37;;;;;;;;;;;7.90;99.90;;;;;;5131683;27;20479;-74
2023/01/15 03:37:04;;;;;;;;;;;7.80;99.90;;;;;;5125353;27;19924;-74
2023/01/15 03:39:32;;;;;;;;;;;7.60;99.90;;;;;;5128217;27;19981;-74
2023/01/15 03:42:05;;;;;;;;;;;7.30;99.90;;;;;;5120117;27;20459;-74
2023/01/15 03:44:38;;;;;;;;;;;7.30;99.90;;;;;;5129882;27;19924;-75
2023/01/15 03:47:11;;;;;;;;;;;7.10;99.90;;;;;;5129658;27;20291;-75
2023/01/15 03:49:45;;;;;;;;;;;7.00;99.90;;;;;;5124319;27;20022;-74
2023/01/15 03:52:16;;;;;;;;;;;6.90;99.90;;;;;;5129472;27;19927;-76
2023/01/15 03:54:47;;;;;;;;;;;6.80;99.90;;;;;;5129336;27;20860;-75
2023/01/15 03:57:20;;;;;;;;;;;6.70;99.90;;;;;;5130633;27;20035;-72
2023/01/15 03:59:50;;;;;;;;;;;6.70;99.90;;;;;;5121170;27;19928;-75
2023/01/15 04:02:20;;;;;;;;;;;6.60;99.90;;;;;;5129123;27;19969;-75
2023/01/15 04:04:49;;;;;;;;;;;6.50;99.90;;;;;;5133326;27;20306;-75
2023/01/15 04:07:17;;;;;;;;;;;6.50;99.90;;;;;;5124316;27;20450;-73
2023/01/15 04:09:44;;;;;;;;;;;6.40;99.90;;;;;;5126415;27;20297;-72
2023/01/15 04:12:12;;;;;;;;;;;6.40;99.90;;;;;;5127347;27;19927;-72
2023/01/15 04:14:40;;;;;;;;;;;6.40;99.90;;;;;;5118800;27;19923;-72
2023/01/15 04:17:08;;;;;;;;;;;6.30;99.90;;;;;;5129491;27;19924;-74
2023/01/15 04:19:37;;;;;;;;;;;6.20;99.90;;;;;;5127350;27;20010;-73
2023/01/15 04:22:04;;;;;;;;;;;6.20;99.90;;;;;;5125610;27;19927;-72
2023/01/15 04:24:32;;;;;;;;;;;6.10;99.90;;;;;;5122766;27;20407;-72
2023/01/15 04:27:00;;;;;;;;;;;6.10;99.90;;;;;;5124215;27;19929;-71
2023/01/15 04:29:28;;;;;;;;;;;6.10;99.90;;;;;;5126895;27;20408;-73
2023/01/15 04:31:56;;;;;;;;;;;6.00;99.90;;;;;;5122783;27;19930;-72
2023/01/15 04:34:25;;;;;;;;;;;6.00;99.90;;;;;;5127624;27;19974;-72
2023/01/15 04:36:54;;;;;;;;;;;6.10;99.90;;;;;;5121701;27;19923;-72
2023/01/15 04:39:22;;;;;;;;;;;6.00;99.90;;;;;;5128147;27;20021;-71
2023/01/15 04:44:35;;;;;;;;;;;6.00;99.90;;;;;;5121178;27;20345;-76
2023/01/15 04:47:03;;;;;;;;;;;6.00;99.90;;;;;;5123094;27;19934;-73
2023/01/15 04:49:31;;;;;;;;;;;6.00;99.90;;;;;;5122509;27;19966;-73
2023/01/15 04:52:00;;;;;;;;;;;6.00;99.90;;;;;;5122446;27;19992;-73
2023/01/15 04:54:27;;;;;;;;;;;6.00;99.90;;;;;;5126491;27;19930;-73
2023/01/15 04:56:55;;;;;;;;;;;6.00;99.90;;;;;;5126009;27;19928;-73
2023/01/15 04:59:24;;;;;;;;;;;6.10;99.90;;;;;;5127933;27;19923;-73
2023/01/15 05:01:52;;;;;;;;;;;6.10;99.90;;;;;;5128581;27;19946;-73
2023/01/15 05:04:32;;;;;;;;;;;6.00;99.90;;;;;;5122123;27;19958;-73
2023/01/15 05:07:02;;;;;;;;;;;6.00;99.90;;;;;;5113915;27;19923;-73
2023/01/15 05:09:29;;;;;;;;;;;6.00;99.90;;;;;;5126582;27;19923;-72
2023/01/15 05:11:57;;;;;;;;;;;5.90;99.90;;;;;;5122496;27;20010;-73
2023/01/15 05:14:25;;;;;;;;;;;5.90;99.90;;;;;;5125323;27;19931;-72
2023/01/15 05:16:53;;;;;;;;;;;5.90;99.90;;;;;;5124701;27;20372;-72
2023/01/15 05:19:20;;;;;;;;;;;5.90;99.90;;;;;;5125854;27;20411;-72
2023/01/15 05:21:48;;;;;;;;;;;5.80;99.90;;;;;;5126185;27;20308;-73
2023/01/15 05:24:17;;;;;;;;;;;5.80;99.90;;;;;;5128018;27;20311;-71
2023/01/15 05:26:45;;;;;;;;;;;5.90;99.90;;;;;;5128869;27;19934;-71
2023/01/15 05:29:13;;;;;;;;;;;5.80;99.90;;;;;;5122452;27;20017;-73
2023/01/15 05:31:43;;;;;;;;;;;5.90;99.90;;;;;;5123941;27;19965;-72
2023/01/15 05:34:12;;;;;;;;;;;5.80;99.90;;;;;;5129179;27;20419;-72
2023/01/15 05:36:40;;;;;;;;;;;5.90;99.90;;;;;;5124439;27;19923;-72
2023/01/15 05:39:08;;;;;;;;;;;5.90;99.90;;;;;;5127194;27;19949;-71
2023/01/15 05:41:49;;;;;;;;;;;5.80;99.90;;;;;;5134367;27;19923;-73
2023/01/15 05:44:19;;;;;;;;;;;5.80;99.90;;;;;;5136091;27;19924;-73
2023/01/15 05:46:47;;;;;;;;;;;5.80;99.90;;;;;;5125606;27;19923;-72
2023/01/15 05:49:16;;;;;;;;;;;5.90;99.90;;;;;;5123412;27;19924;-72
2023/01/15 05:51:44;;;;;;;;;;;5.90;99.90;;;;;;5123987;27;19923;-72
2023/01/15 05:54:12;;;;;;;;;;;5.90;99.90;;;;;;5122791;28;19930;-72
2023/01/15 05:56:42;;;;;;;;;;;5.90;99.90;;;;;;5118346;28;20022;-72
2023/01/15 05:59:10;;;;;;;;;;;5.90;99.90;;;;;;5121469;28;19931;-72
2023/01/15 06:01:38;;;;;;;;;;;5.90;99.90;;;;;;5120217;28;19923;-72
2023/01/15 06:04:06;;;;;;;;;;;5.80;99.90;;;;;;5131594;28;19946;-72
2023/01/15 06:06:34;;;;;;;;;;;5.80;99.90;;;;;;5122229;28;19989;-72
2023/01/15 06:09:02;;;;;;;;;;;5.80;99.90;;;;;;5130942;28;20010;-71
2023/01/15 06:11:30;;;;;;;;;;;5.80;99.90;;;;;;5124801;28;19923;-74
2023/01/15 06:13:59;;;;;;;;;;;5.80;99.90;;;;;;5123992;28;19923;-72
2023/01/15 06:16:27;;;;;;;;;;;5.90;99.90;;;;;;5127435;28;20010;-74
2023/01/15 06:18:54;;;;;;;;;;;6.00;99.90;;;;;;5124187;28;20448;-74
2023/01/15 06:21:22;;;;;;;;;;;6.00;99.90;;;;;;5129366;28;19963;-73
2023/01/15 06:23:52;;;;;;;;;;;6.00;99.90;;;;;;5129678;28;19927;-75
2023/01/15 06:26:20;;;;;;;;;;;5.90;99.90;;;;;;5119745;28;19924;-75
2023/01/15 06:28:48;;;;;;;;;;;5.80;99.90;;;;;;5124649;28;19927;-74
2023/01/15 06:31:18;;;;;;;;;;;5.90;99.90;;;;;;5130973;28;20291;-75
2023/01/15 06:33:46;;;;;;;;;;;5.90;99.90;;;;;;5110802;22;19924;-63
2023/01/15 06:36:16;;;;;;;;;;;5.80;99.90;;;;;;5073921;28;20015;-63
2023/01/15 06:38:44;;;;;;;;;;;5.80;99.90;;;;;;5073286;28;20457;-63
2023/01/15 06:49:32;;;;;;;;;;;5.80;99.90;;;;;;5058768;28;19939;-63
2023/01/15 06:52:00;;;;;;;;;;;5.80;99.90;;;;;;5070764;28;19936;-63
2023/01/15 06:54:29;;;;;;;;;;;5.80;99.90;;;;;;5081685;28;19932;-64
2023/01/15 06:56:57;;;;;;;;;;;5.90;99.90;;;;;;5079452;28;20316;-64
2023/01/15 06:59:24;;;;;;;;;;;5.90;99.90;;;;;;5068182;28;20547;-63
2023/01/15 07:01:53;;;;;;;;;;;5.90;99.90;;;;;;5062960;28;19993;-63
2023/01/15 07:04:21;;;;;;;;;;;5.90;99.90;;;;;;5061149;28;19936;-63
2023/01/15 07:06:49;;;;;;;;;;;5.90;99.90;;;;;;5060006;28;20023;-63
2023/01/15 07:09:17;;;;;;;;;;;5.90;99.90;;;;;;5067199;28;19924;-63
2023/01/15 07:11:49;;;;;;;;;;;5.90;99.90;;;;;;5066224;28;19943;-63
2023/01/15 07:14:17;;;;;;;;;;;5.90;99.90;;;;;;5071754;28;19987;-63
2023/01/15 07:16:45;;;;;;;;;;;5.80;99.90;;;;;;5071687;28;19924;-63
2023/01/15 07:19:14;;;;;;;;;;;5.80;99.90;;;;;;5066968;28;19974;-64
2023/01/15 07:21:42;;;;;;;;;;;5.80;99.90;;;;;;5067128;28;20019;-63
2023/01/15 07:24:10;;;;;;;;;;;5.80;99.90;;;;;;5077186;28;19925;-63
2023/01/15 07:26:38;;;;;;;;;;;5.70;99.90;;;;;;5062807;28;19928;-63
2023/01/15 07:29:05;;;;;;;;;;;5.70;99.90;;;;;;5072145;28;20287;-63
2023/01/15 07:31:33;;;;;;;;;;;5.60;99.90;;;;;;5073105;28;20022;-63
2023/01/15 07:34:01;;;;;;;;;;;5.60;99.90;;;;;;5073749;28;20011;-63
2023/01/15 07:36:30;;;;;;;;;;;5.70;99.90;;;;;;5070565;28;19935;-63
2023/01/15 07:38:58;;;;;;;;;;;5.60;99.90;;;;;;5059454;28;19928;-63
2023/01/15 07:49:48;;;;;;;;;;;5.40;99.90;;;;;;5063600;28;20734;-63
2023/01/15 07:52:17;;;;;;;;;;;5.40;99.90;;;;;;5063903;28;19959;-63
2023/01/15 07:54:46;;;;;;;;;;;5.40;99.90;;;;;;5076064;28;20028;-63
2023/01/15 07:57:15;;;;;;;;;;;5.40;99.90;;;;;;5072107;28;19931;-63
2023/01/15 07:59:43;;;;;;;;;;;5.40;99.90;;;;;;5069273;28;19928;-63
2023/01/15 08:02:11;;;;;;;;;;;5.40;99.90;;;;;;5065753;28;20020;-62
2023/01/15 08:04:39;;;;;;;;;;;5.40;99.90;;;;;;5056579;28;20398;-63
2023/01/15 08:07:07;;;;;;;;;;;5.40;99.90;;;;;;5071078;28;20023;-63
2023/01/15 08:09:36;;;;;;;;;;;5.40;99.90;;;;;;5067704;28;20316;-62
2023/01/15 08:17:35;;;;;;;;;;;5.40;99.90;;;;;;5070331;28;19938;-63
2023/01/15 08:20:04;;;;;;;;;;;5.40;99.90;;;;;;5061280;28;19925;-62
2023/01/15 08:22:31;;;;;;;;;;;5.40;99.90;;;;;;5071666;28;19931;-63
2023/01/15 08:25:00;;;;;;;;;;;5.40;99.90;;;;;;5070843;28;19963;-62
2023/01/15 08:27:29;;;;;;;;;;;5.40;99.90;;;;;;5062513;28;19928;-63
2023/01/15 08:29:58;;;;;;;;;;;5.40;99.90;;;;;;5064327;28;19933;-63
2023/01/15 08:32:26;;;;;;;;;;;5.40;99.90;;;;;;5066571;28;20019;-63
2023/01/15 08:34:54;;;;;;;;;;;5.40;99.90;;;;;;5059284;28;20389;-63
2023/01/15 08:37:21;;;;;;;;;;;5.40;99.90;;;;;;5082143;28;19924;-63
2023/01/15 08:39:52;;;;;;;;;;;5.40;99.90;;;;;;5059412;28;20015;-63
2023/01/15 08:42:21;;;;;;;;;;;5.50;99.90;;;;;;5059608;28;20267;-63
2023/01/15 08:44:49;;;;;;;;;;;5.40;99.90;;;;;;5055099;28;20276;-63
2023/01/15 08:47:17;;;;;;;;;;;5.50;99.90;;;;;;5058023;28;19931;-63
2023/01/15 08:49:46;;;;;;;;;;;5.40;99.90;;;;;;5072922;28;19924;-63
2023/01/15 08:52:13;;;;;;;;;;;5.40;99.90;;;;;;5067920;28;20019;-63
2023/01/15 08:54:42;;;;;;;;;;;5.40;99.90;;;;;;5062386;28;19930;-63
2023/01/15 08:57:11;;;;;;;;;;;5.50;99.90;;;;;;5076994;28;19928;-63
2023/01/15 08:59:41;;;;;;;;;;;5.50;99.90;;;;;;5056981;28;19924;-62
2023/01/15 09:02:11;;;;;;;;;;;5.50;99.90;;;;;;5060933;28;19924;-63
2023/01/15 09:04:39;;;;;;;;;;;5.50;99.90;;;;;;5054391;28;19935;-63
2023/01/15 09:07:06;;;;;;;;;;;5.50;99.90;;;;;;5058994;28;19979;-63
2023/01/15 09:09:34;;;;;;;;;;;5.50;99.90;;;;;;5061707;28;19924;-62
2023/01/15 09:12:02;;;;;;;;;;;5.60;99.90;;;;;;5073768;28;20011;-63
2023/01/15 09:14:29;;;;;;;;;;;5.50;99.90;;;;;;5071209;28;19964;-63
2023/01/15 09:17:18;;;;;;;;;;;5.50;99.90;;;;;;5091603;28;19931;-63
2023/01/15 09:19:46;;;;;;;;;;;5.50;99.90;;;;;;5074548;28;19931;-62
2023/01/15 09:22:14;;;;;;;;;;;5.60;99.90;;;;;;5071596;28;19928;-63
2023/01/15 09:24:41;;;;;;;;;;;5.50;99.90;;;;;;5071833;28;19970;-63
2023/01/15 09:27:10;;;;;;;;;;;5.50;99.90;;;;;;5071678;28;19924;-63
2023/01/15 09:29:38;;;;;;;;;;;5.50;99.90;;;;;;5071314;28;19934;-62
2023/01/15 09:32:07;;;;;;;;;;;5.50;99.90;;;;;;5063376;28;19924;-63
2023/01/15 09:34:36;;;;;;;;;;;5.50;99.90;;;;;;5043813;28;20007;-63
2023/01/15 09:37:03;;;;;;;;;;;5.50;99.90;;;;;;5051096;28;19967;-63
2023/01/15 09:39:31;;;;;;;;;;;5.60;99.90;;;;;;5043365;28;19945;-62
2023/01/15 09:42:07;;;;;;;;;;;5.50;99.90;;;;;;5042485;28;20420;-63
2023/01/15 09:44:39;;;;;;;;;;;5.60;99.90;;;;;;5047858;28;19968;-63
2023/01/15 09:47:09;;;;;;;;;;;5.60;99.90;;;;;;5047298;28;19925;-63
2023/01/15 09:50:04;;;;;;;;;;;5.60;99.90;;;;;;5043979;28;20011;-62
2023/01/15 09:52:42;;;;;;;;;;;5.60;99.90;;;;;;4985689;28;19929;-63
2023/01/15 09:55:12;;;;;;;;;;;5.60;99.90;;;;;;5044195;28;19946;-63
2023/01/15 09:57:41;;;;;;;;;;;5.60;99.90;;;;;;5048345;28;20860;-63
2023/01/15 10:00:14;;;;;;;;;;;5.60;99.90;;;;;;5034536;28;20349;-65
2023/01/15 10:02:43;;;;;;;;;;;5.50;99.90;;;;;;5034574;28;19925;-63
2023/01/15 10:05:15;;;;;;;;;;;5.60;99.90;;;;;;5035850;28;20406;-63
2023/01/15 10:07:49;;;;;;;;;;;5.50;99.90;;;;;;5043500;28;19933;-64
2023/01/15 10:10:19;;;;;;;;;;;5.60;99.90;;;;;;5042345;28;19929;-64
2023/01/15 10:12:49;;;;;;;;;;;5.50;99.90;;;;;;5043053;28;19978;-63
2023/01/15 10:15:21;;;;;;;;;;;5.60;99.90;;;;;;5040989;28;20028;-63
2023/01/15 10:17:49;;;;;;;;;;;5.50;99.90;;;;;;5043447;28;19936;-64
2023/01/15 10:20:24;;;;;;;;;;;5.50;99.90;;;;;;5055845;28;19974;-63
2023/01/15 10:23:03;;;;;;;;;;;5.60;99.90;;;;;;5049264;28;20019;-64
2023/01/15 10:25:36;;;;;;;;;;;5.60;99.90;;;;;;5040854;28;20311;-63
2023/01/15 10:28:09;;;;;;;;;;;5.60;99.90;;;;;;5044258;28;20024;-63
2023/01/15 10:30:41;;;;;;;;;;;5.60;99.90;;;;;;5041596;28;20418;-65
2023/01/15 10:33:14;;;;;;;;;;;5.50;99.90;;;;;;5047740;28;19939;-63
2023/01/15 10:35:54;;;;;;;;;;;5.60;99.90;;;;;;5062892;28;19924;-63
2023/01/15 10:38:26;;;;;;;;;;;5.60;99.90;;;;;;5065804;28;19943;-63
2023/01/15 10:41:06;;;;;;;;;;;5.60;99.90;;;;;;5075013;28;19924;-63
2023/01/15 10:43:40;;;;;;;;;;;5.60;99.90;;;;;;5084544;28;20308;-63
2023/01/15 10:46:11;;;;;;;;;;;5.60;99.90;;;;;;5084317;28;19956;-64
2023/01/15 10:48:41;;;;;;;;;;;5.60;99.90;;;;;;5066607;28;19938;-63
2023/01/15 10:51:14;;;;;;;;;;;5.60;99.90;;;;;;5077131;28;19973;-63
2023/01/15 10:53:45;;;;;;;;;;;5.60;99.90;;;;;;5061617;28;19934;-63
2023/01/15 10:56:16;;;;;;;;;;;5.60;99.90;;;;;;5066977;28;19925;-63
2023/01/15 10:58:47;;;;;;;;;;;5.60;99.90;;;;;;5053397;28;19933;-63
2023/01/15 11:01:18;;;;;;;;;;;5.60;99.90;;;;;;5064785;28;19950;-63
2023/01/15 11:03:46;;;;;;;;;;;5.60;99.90;;;;;;5060068;28;19925;-64
2023/01/15 11:06:14;;;;;;;;;;;5.70;99.90;;;;;;5063199;28;19939;-63
2023/01/15 11:08:45;;;;;;;;;;;5.70;99.90;;;;;;5064524;28;19960;-63
2023/01/15 11:19:35;;;;;;;;;;;5.70;99.90;;;;;;5059203;28;19931;-63
2023/01/15 11:20:16;;;;;;;;;;;5.70;99.90;;;;;;5061150;28;20385;-63
2023/01/15 11:22:44;;;;;;;;;;;5.70;99.90;;;;;;5061079;28;20335;-63
2023/01/15 11:25:13;;;;;;;;;;;5.80;99.90;;;;;;5066932;28;20019;-63
2023/01/15 11:27:41;;;;;;;;;;;6.00;99.90;;;;;;5059374;28;19961;-63
2023/01/15 11:30:24;;;;;;;;;;;6.10;99.90;;;;;;5063180;28;19925;-63
2023/01/15 11:32:54;;;;;;;;;;;6.10;99.90;;;;;;5062312;28;19982;-63
2023/01/15 11:35:22;;;;;;;;;;;6.10;99.90;;;;;;5061605;28;19925;-63
2023/01/15 11:37:50;;;;;;;;;;;6.10;99.90;;;;;;5060815;28;20282;-63
2023/01/15 11:40:20;;;;;;;;;;;6.10;99.90;;;;;;5065120;28;19928;-63
2023/01/15 11:51:07;;;;;;;;;;;6.20;99.90;;;;;;5072602;28;20460;-63
2023/01/15 11:53:38;;;;;;;;;;;6.20;99.90;;;;;;5069057;28;19935;-63
2023/01/15 11:56:10;;;;;;;;;;;6.20;99.90;;;;;;5062880;28;19924;-63
2023/01/15 11:58:40;;;;;;;;;;;6.20;99.90;;;;;;5060597;28;19931;-63
2023/01/15 12:01:08;;;;;;;;;;;6.30;99.90;;;;;;5069136;28;20038;-64
2023/01/15 12:03:36;;;;;;;;;;;6.70;99.90;;;;;;5078405;28;19924;-63
2023/01/15 12:06:07;;;;;;;;;;;6.80;99.90;;;;;;5060758;28;19929;-63
2023/01/15 12:08:47;;;;;;;;;;;6.90;99.90;;;;;;5058802;28;19955;-63
2023/01/15 12:11:21;;;;;;;;;;;7.00;99.90;;;;;;5061928;28;20797;-63
2023/01/15 12:13:58;;;;;;;;;;;7.00;99.90;;;;;;5067285;28;19925;-63
2023/01/15 12:16:30;;;;;;;;;;;7.60;99.90;;;;;;5064091;28;19943;-63
2023/01/15 12:19:01;;;;;;;;;;;7.90;99.90;;;;;;5061470;28;20026;-63
2023/01/15 12:21:53;;;;;;;;;;;8.10;99.90;;;;;;5064829;28;20043;-63
2023/01/15 12:24:29;;;;;;;;;;;8.30;99.90;;;;;;5065995;28;20011;-64
2023/01/15 12:27:06;;;;;;;;;;;8.70;99.90;;;;;;5067242;28;19929;-63
2023/01/15 12:29:38;;;;;;;;;;;8.70;99.90;;;;;;5060329;28;19939;-63
2023/01/15 12:32:08;;;;;;;;;;;8.30;99.90;;;;;;5064244;28;19948;-63
2023/01/15 12:34:39;;;;;;;;;;;8.20;99.90;;;;;;5081215;22;20019;-72
2023/01/15 12:37:11;;;;;;;;;;;8.10;99.90;;;;;;5066613;28;20381;-72
2023/01/15 12:39:45;;;;;;;;;;;8.00;99.90;;;;;;5064119;28;19932;-73
2023/01/15 12:45:07;;;;;;;;;;;7.80;99.90;;;;;;5063398;28;20313;-72
2023/01/15 12:47:38;;;;;;;;;;;7.70;99.90;;;;;;5062061;28;19924;-72
2023/01/15 12:50:13;;;;;;;;;;;7.60;99.90;;;;;;5061497;28;20031;-72
2023/01/15 12:52:43;;;;;;;;;;;7.50;99.90;;;;;;5065011;28;20012;-72
2023/01/15 12:55:14;;;;;;;;;;;7.40;99.90;;;;;;5062012;28;20011;-72
2023/01/15 12:57:44;;;;;;;;;;;7.50;99.90;;;;;;5064225;28;19929;-71
2023/01/15 13:00:14;;;;;;;;;;;7.60;99.90;;;;;;5062653;28;19928;-73
2023/01/15 13:02:57;;;;;;;;;;;7.70;99.90;;;;;;5061894;28;19939;-73
2023/01/15 13:05:28;;;;;;;;;;;7.70;99.90;;;;;;5066385;28;20019;-72
2023/01/15 13:07:58;;;;;;;;;;;7.60;99.90;;;;;;5063067;28;20389;-73
2023/01/15 13:10:26;;;;;;;;;;;7.60;99.90;;;;;;5063254;28;20020;-72
2023/01/15 13:12:58;;;;;;;;;;;7.60;99.90;;;;;;5063405;28;19975;-73
2023/01/15 13:15:28;;;;;;;;;;;7.50;99.90;;;;;;5064859;28;20394;-72
2023/01/15 13:18:02;;;;;;;;;;;7.30;99.90;;;;;;5063998;28;20355;-73
2023/01/15 13:20:38;;;;;;;;;;;7.30;99.90;;;;;;5063220;28;19944;-72
2023/01/15 13:23:08;;;;;;;;;;;7.20;99.90;;;;;;5060777;28;20363;-73
2023/01/15 13:25:44;;;;;;;;;;;7.20;99.90;;;;;;5060852;28;20469;-72
2023/01/15 13:28:20;;;;;;;;;;;7.30;99.90;;;;;;5065256;28;19968;-72
2023/01/15 13:30:52;;;;;;;;;;;7.20;99.90;;;;;;5061989;28;20018;-72
2023/01/15 13:33:25;;;;;;;;;;;7.20;99.90;;;;;;5064880;28;19924;-72
2023/01/15 13:35:55;;;;;;;;;;;7.20;99.90;;;;;;5064844;28;19924;-72
2023/01/15 13:38:25;;;;;;;;;;;7.20;99.90;;;;;;5064184;28;20420;-73
2023/01/15 13:40:54;;;;;;;;;;;7.10;99.90;;;;;;5060415;28;20007;-73
2023/01/15 13:43:27;;;;;;;;;;;7.10;99.90;;;;;;5061244;28;19951;-71
2023/01/15 13:45:56;;;;;;;;;;;7.10;99.90;;;;;;5063194;28;20443;-72
2023/01/15 13:48:28;;;;;;;;;;;7.10;99.90;;;;;;5062663;28;19925;-73
2023/01/15 13:50:57;;;;;;;;;;;7.00;99.90;;;;;;5065213;28;20019;-71
2023/01/15 13:53:27;;;;;;;;;;;7.10;99.90;;;;;;5064029;28;20349;-72
2023/01/15 13:55:55;;;;;;;;;;;7.20;99.90;;;;;;5064083;28;19933;-72
2023/01/15 13:58:25;;;;;;;;;;;7.40;99.90;;;;;;5065961;28;20389;-72
2023/01/15 14:01:17;;;;;;;;;;;7.40;99.90;;;;;;5063469;28;20054;-72
2023/01/15 14:03:55;;;;;;;;;;;7.50;99.90;;;;;;5043487;28;19925;-72
2023/01/15 14:06:23;;;;;;;;;;;7.50;99.90;;;;;;5068353;28;20022;-72
2023/01/15 14:08:51;;;;;;;;;;;7.50;99.90;;;;;;5068435;28;19924;-72
2023/01/15 14:11:34;;;;;;;;;;;7.40;99.90;;;;;;5064995;28;20366;-72
2023/01/15 14:14:17;;;;;;;;;;;7.40;99.90;;;;;;5069370;28;20394;-72
2023/01/15 14:16:52;;;;;;;;;;;7.50;99.90;;;;;;5068979;28;20010;-72
2023/01/15 14:19:33;;;;;;;;;;;7.50;99.90;;;;;;5066787;28;19971;-72
2023/01/15 14:22:13;;;;;;;;;;;7.50;99.90;;;;;;5061477;28;19946;-72
2023/01/15 14:24:49;;;;;;;;;;;7.50;99.90;;;;;;5052150;28;20074;-72
2023/01/15 14:27:23;;;;;;;;;;;7.50;99.90;;;;;;5058580;28;20010;-72
2023/01/15 14:30:11;;;;;;;;;;;7.60;99.90;;;;;;5062922;28;19924;-72
2023/01/15 14:32:43;;;;;;;;;;;7.50;99.90;;;;;;5068394;28;20032;-72
2023/01/15 14:35:15;;;;;;;;;;;7.50;99.90;;;;;;5067790;28;19936;-72
2023/01/15 14:37:46;;;;;;;;;;;7.50;99.90;;;;;;5068471;28;20627;-71
2023/01/15 14:40:18;;;;;;;;;;;7.40;99.90;;;;;;5065724;28;20069;-71
2023/01/15 14:43:03;;;;;;;;;;;7.40;99.90;;;;;;5067976;28;19929;-72
2023/01/15 14:45:32;;;;;;;;;;;7.40;99.90;;;;;;5066825;28;20376;-73
2023/01/15 14:48:00;;;;;;;;;;;7.40;99.90;;;;;;5065660;28;20014;-72
2023/01/15 14:50:32;;;;;;;;;;;7.40;99.90;;;;;;5065980;28;19925;-72
2023/01/15 14:53:03;;;;;;;;;;;7.50;99.90;;;;;;5067549;28;20011;-72
2023/01/15 14:55:31;;;;;;;;;;;7.40;99.90;;;;;;5067322;28;19924;-73
2023/01/15 14:58:01;;;;;;;;;;;7.40;99.90;;;;;;5065901;28;19930;-73
2023/01/15 15:00:31;;;;;;;;;;;7.40;99.90;;;;;;5064648;28;20003;-72
2023/01/15 15:03:00;;;;;;;;;;;7.30;99.90;;;;;;5068379;28;19924;-72
2023/01/15 15:05:29;;;;;;;;;;;7.30;99.90;;;;;;5066609;28;19924;-72
2023/01/15 15:07:58;;;;;;;;;;;7.30;99.90;;;;;;5066356;28;19928;-72
2023/01/15 15:10:30;;;;;;;;;;;7.30;99.90;;;;;;5064860;28;19925;-73
2023/01/15 15:13:02;;;;;;;;;;;7.20;99.90;;;;;;5068333;28;19939;-72
2023/01/15 15:15:37;;;;;;;;;;;7.20;99.90;;;;;;5065069;28;19931;-72
2023/01/15 15:18:08;;;;;;;;;;;7.10;99.90;;;;;;5067093;28;20408;-73
2023/01/15 15:20:43;;;;;;;;;;;7.00;99.90;;;;;;5065118;28;20023;-72
2023/01/15 15:23:15;;;;;;;;;;;7.00;99.90;;;;;;5061853;28;20015;-72
2023/01/15 15:25:43;;;;;;;;;;;7.00;99.90;;;;;;5053896;28;19935;-72
2023/01/15 15:28:11;;;;;;;;;;;6.90;99.90;;;;;;5067454;28;20391;-71
2023/01/15 15:30:41;;;;;;;;;;;6.80;99.90;;;;;;5067920;28;19939;-72
2023/01/15 15:33:12;;;;;;;;;;;6.80;99.90;;;;;;5067519;28;21614;-71